• Join FlightAware (Why Join?)
  • Login
  • US Flag 
08:43PM EDT


 

Airport Tracker/Info


-or-


 

Live Flight TrackerFlight Track Log ✈ AAL1975 ✈ 10-Jul-2013 ✈ KORD - KSAN

Flight Track Log - Related Links

Times and Time Zones

All times are in EDT time to prevent confusion due to time zone crossing. See the AAL1975 flight status page for this flight to view local times or setup timezone preferences in your user account.

Time Position Orientation Groundspeed Altitude Reporting Facility
EDT Latitude Longitude Course Direction KTS MPH feet Rate Location/Type
01:44PM 41.9410 -87.9410 264° West 188 216 2,600  Level FlightAware
01:45PM 41.9380 -87.9870 265° West 225 259 3,600 2,040 Climbing FlightAware
01:46PM 41.9350 -88.0570 267° West 258 297 5,500 3,660 Climbing FlightAware
01:46PM 41.9340 -88.0980 268° West 242 278 7,300 3,720 Climbing FlightAware
01:47PM 41.9320 -88.1370 266° West 240 276 8,800 2,820 Climbing FlightAware
01:47PM 41.9300 -88.1950 267° West 259 298 10,300 2,460 Climbing FlightAware
01:48PM 41.9250 -88.2700 265° West 273 314 12,200 2,340 Climbing FlightAware
01:49PM 41.9200 -88.3380 264° West 293 337 13,600 2,100 Climbing FlightAware
01:49PM 41.9130 -88.4210 264° West 314 361 15,100 1,920 Climbing FlightAware
01:50PM 41.8990 -88.5020 257° West 341 392 16,400 1,740 Climbing FlightAware
01:51PM 41.8770 -88.5840 250° West 363 418 17,500 1,920 Climbing FlightAware
01:51PM 41.8530 -88.6750 251° West 373 429 19,100 1,980 Climbing FlightAware
01:52PM 41.8280 -88.7690 250° West 388 447 20,300 1,800 Climbing FlightAware
01:53PM 41.8050 -88.8590 251° West 397 457 21,500 1,740 Climbing FlightAware
01:53PM 41.7810 -88.9500 251° West 403 464 22,700 1,800 Climbing FlightAware
01:54PM 41.7540 -89.0510 250° West 409 471 24,000 1,860 Climbing FlightAware
01:55PM 41.7280 -89.1480 250° West 414 476 25,200 1,680 Climbing FlightAware
01:55PM 41.7020 -89.2480 251° West 419 482 26,300 1,560 Climbing FlightAware
01:56PM 41.6710 -89.3620 250° West 419 482 27,500 1,560 Climbing FlightAware
01:57PM 41.6350 -89.4980 251° West 417 480 29,000 1,680 Climbing FlightAware
01:58PM 41.6100 -89.5890 250° West 408 470 30,200 1,680 Climbing FlightAware
01:58PM 41.5830 -89.6890 250° West 403 464 31,300 1,380 Climbing FlightAware
01:59PM 41.5560 -89.7900 250° West 402 463 32,200 1,140 Climbing FlightAware
01:59PM 41.5490 -89.8150 249° West 402 463 32,400 720 Climbing FlightAware
02:01PM 41.5100 -89.9590 250° West 409 471 33,300 960 Climbing FlightAware
02:01PM 41.4720 -90.0970 250° West 405 466 34,300 1,380 Climbing FlightAware
02:02PM 41.4440 -90.1980 250° West 392 451 35,400 1,200 Climbing FlightAware
02:03PM 41.4220 -90.2780 250° West 388 447 36,000 420 Climbing FlightAware
02:03PM 41.3960 -90.3700 249° West 390 449 36,000  Level FlightAware
02:04PM 41.3680 -90.4690 249° West 392 451 36,000  Level FlightAware
02:05PM 41.3460 -90.5470 249° West 394 453 36,000  Level FlightAware
02:06PM 41.3140 -90.6570 249° West 398 458 36,000  Level FlightAware
02:06PM 41.2760 -90.7590 244° Southwest 401 461 36,000  Level FlightAware
02:07PM 41.2440 -90.8450 244° Southwest 405 466 36,000  Level FlightAware
02:08PM 41.2040 -90.9520 244° Southwest 408 470 36,000  Level FlightAware
02:08PM 41.1750 -91.0290 243° Southwest 410 472 36,000  Level FlightAware
02:09PM 41.1350 -91.1360 244° Southwest 412 474 36,000  Level FlightAware
02:10PM 41.1040 -91.2190 244° Southwest 411 473 36,000  Level FlightAware
02:10PM 41.0690 -91.3110 243° Southwest 409 471 36,000  Level FlightAware
02:12PM 41.0120 -91.4600 243° Southwest 406 467 36,000  Level FlightAware
02:12PM 40.9820 -91.5380 243° Southwest 406 467 36,000  Level FlightAware
02:13PM 40.9350 -91.6600 243° Southwest 406 467 36,000  Level FlightAware
02:14PM 40.8940 -91.7680 243° Southwest 406 467 36,000  Level FlightAware
02:15PM 40.8220 -91.9540 243° Southwest 405 466 36,000  Level FlightAware
02:16PM 40.7940 -92.0230 242° Southwest 405 466 36,000  Level FlightAware
02:17PM 40.7460 -92.1470 243° Southwest 408 470 36,000  Level FlightAware
02:17PM 40.7200 -92.2150 243° Southwest 408 470 36,000  Level FlightAware
02:18PM 40.6760 -92.3270 243° Southwest 411 473 36,000  Level FlightAware
02:19PM 40.6440 -92.4070 242° Southwest 411 473 36,000  Level FlightAware
02:20PM 40.5880 -92.5500 243° Southwest 413 475 36,000  Level FlightAware
02:20PM 40.5540 -92.6380 243° Southwest 413 475 36,000  Level FlightAware
02:21PM 40.5150 -92.7350 242° Southwest 415 478 36,000  Level FlightAware
02:22PM 40.4830 -92.8150 242° Southwest 416 479 36,000  Level FlightAware
02:22PM 40.4460 -92.9060 242° Southwest 416 479 36,000  Level FlightAware
02:23PM 40.4327 -92.9398 243° Southwest 416 479 36,000  Level FlightAware ADS-B
02:23PM 40.4053 -93.0079 242° Southwest 416 479 36,000  Level FlightAware ADS-B
02:24PM 40.3783 -93.0753 242° Southwest 415 478 36,000  Level FlightAware ADS-B
02:24PM 40.3512 -93.1424 242° Southwest 416 479 36,000  Level FlightAware ADS-B
02:25PM 40.3242 -93.2094 242° Southwest 417 480 36,000  Level FlightAware ADS-B
02:25PM 40.2970 -93.2763 242° Southwest 419 482 36,000  Level FlightAware ADS-B
02:26PM 40.2626 -93.3610 242° Southwest 421 484 36,000  Level FlightAware ADS-B
02:26PM 40.2348 -93.4294 242° Southwest 423 487 36,000  Level FlightAware ADS-B
02:27PM 40.2072 -93.4969 242° Southwest 422 486 36,000  Level FlightAware ADS-B
02:27PM 40.1779 -93.5685 242° Southwest 421 484 36,000  Level FlightAware ADS-B
02:28PM 40.1483 -93.6410 242° Southwest 423 487 36,000  Level FlightAware ADS-B
02:28PM 40.1204 -93.7087 242° Southwest 422 486 36,000  Level FlightAware ADS-B
02:29PM 40.0922 -93.7770 242° Southwest 423 487 36,000  Level FlightAware ADS-B
02:29PM 40.0635 -93.8467 242° Southwest 424 488 36,000  Level FlightAware ADS-B
02:30PM 40.0356 -93.9142 242° Southwest 425 489 36,000  Level FlightAware ADS-B
02:30PM 40.0091 -93.9786 242° Southwest 425 489 36,000  Level FlightAware ADS-B
02:31PM 39.9983 -94.0106 246° West 424 488 36,000  Level FlightAware ADS-B
02:31PM 39.9801 -94.0834 252° West 423 487 36,000  Level FlightAware ADS-B
02:32PM 39.9623 -94.1567 252° West 423 487 36,000  Level FlightAware ADS-B
02:32PM 39.9457 -94.2305 254° West 424 488 36,000  Level FlightAware ADS-B
02:33PM 39.9294 -94.3061 254° West 425 489 36,000  Level FlightAware ADS-B
02:33PM 39.9130 -94.3804 254° West 425 489 36,000  Level FlightAware ADS-B
02:34PM 39.8939 -94.4653 254° West 425 489 36,000  Level FlightAware ADS-B
02:34PM 39.8769 -94.5399 253° West 427 491 36,000  Level FlightAware ADS-B
02:35PM 39.8602 -94.6135 254° West 426 490 36,000  Level FlightAware ADS-B
02:35PM 39.8431 -94.6891 254° West 427 491 36,000  Level FlightAware ADS-B
02:36PM 39.8240 -94.7736 254° West 426 490 36,000  Level FlightAware ADS-B
02:36PM 39.8072 -94.8475 254° West 425 489 36,000  Level FlightAware ADS-B
02:37PM 39.7894 -94.9257 254° West 425 489 36,000  Level FlightAware ADS-B
02:37PM 39.7722 -95.0009 253° West 426 490 36,000  Level FlightAware ADS-B
02:38PM 39.7542 -95.0787 253° West 427 491 36,000  Level FlightAware ADS-B
02:38PM 39.7357 -95.1586 253° West 428 493 36,000  Level FlightAware ADS-B
02:39PM 39.7172 -95.2377 253° West 430 495 36,000  Level FlightAware ADS-B
02:40PM 39.6919 -95.3462 253° West 433 498 36,000  Level FlightAware ADS-B
02:40PM 39.6732 -95.4263 253° West 435 501 36,000  Level FlightAware ADS-B
02:41PM 39.6554 -95.5019 253° West 435 501 36,000  Level FlightAware ADS-B
02:41PM 39.6376 -95.5768 253° West 434 499 36,000  Level FlightAware ADS-B
02:42PM 39.6197 -95.6526 253° West 432 497 36,000  Level FlightAware ADS-B
02:42PM 39.6018 -95.7289 253° West 430 495 36,000  Level FlightAware ADS-B
02:43PM 39.5841 -95.8039 253° West 430 495 36,000  Level FlightAware ADS-B
02:43PM 39.5664 -95.8781 253° West 430 495 36,000  Level FlightAware ADS-B
02:44PM 39.5484 -95.9533 253° West 431 496 36,000  Level FlightAware ADS-B
02:44PM 39.5303 -96.0284 253° West 431 496 36,000  Level FlightAware ADS-B
02:45PM 39.5114 -96.1069 253° West 432 497 36,000  Level FlightAware ADS-B
02:45PM 39.4933 -96.1826 253° West 432 497 36,000  Level FlightAware ADS-B
02:46PM 39.4753 -96.2573 253° West 429 494 36,000  Level FlightAware ADS-B
02:46PM 39.4568 -96.3324 252° West 426 490 36,000  Level FlightAware ADS-B
02:47PM 39.4389 -96.4052 252° West 425 489 36,000  Level FlightAware ADS-B
02:47PM 39.4209 -96.4788 252° West 423 487 36,000  Level FlightAware ADS-B
02:48PM 39.4030 -96.5520 252° West 424 488 36,000  Level FlightAware ADS-B
02:48PM 39.3833 -96.6320 252° West 423 487 36,000  Level FlightAware ADS-B
02:49PM 39.3653 -96.7048 252° West 422 486 36,000  Level FlightAware ADS-B
02:49PM 39.3475 -96.7766 252° West 421 484 36,000  Level FlightAware ADS-B
02:50PM 39.3292 -96.8503 252° West 420 483 36,000  Level FlightAware ADS-B
02:50PM 39.3116 -96.9211 252° West 420 483 36,000  Level FlightAware ADS-B
02:51PM 39.2928 -96.9963 252° West 420 483 36,000  Level FlightAware ADS-B
02:51PM 39.2748 -97.0679 252° West 419 482 36,000  Level FlightAware ADS-B
02:52PM 39.2569 -97.1390 252° West 418 481 36,000  Level FlightAware ADS-B
02:53PM 39.2374 -97.2164 252° West 419 482 36,000  Level FlightAware ADS-B
02:53PM 39.2070 -97.3360 252° West 419 482 36,000  Level FlightAware
02:54PM 39.1994 -97.3661 252° West 420 483 36,000  Level FlightAware ADS-B
02:54PM 39.1807 -97.4398 252° West 423 487 36,000  Level FlightAware ADS-B
02:55PM 39.1621 -97.5124 252° West 428 493 36,000  Level FlightAware ADS-B
02:55PM 39.1430 -97.5871 252° West 429 494 36,000  Level FlightAware ADS-B
02:56PM 39.1240 -97.6608 252° West 431 496 36,000  Level FlightAware ADS-B
02:56PM 39.1042 -97.7379 252° West 432 497 36,000  Level FlightAware ADS-B
02:57PM 39.0852 -97.8113 252° West 432 497 36,000  Level FlightAware ADS-B
02:57PM 39.0663 -97.8843 252° West 433 498 36,000  Level FlightAware ADS-B
02:58PM 39.0334 -98.0108 252° West 434 499 36,000  Level FlightAware ADS-B
02:59PM 39.0004 -98.1369 251° West 436 502 36,000  Level FlightAware ADS-B
02:59PM 38.9796 -98.2161 251° West 437 503 36,000  Level FlightAware ADS-B
03:00PM 38.9563 -98.3047 251° West 435 501 36,000  Level FlightAware ADS-B
03:01PM 38.9365 -98.3794 251° West 435 501 36,000  Level FlightAware ADS-B
03:01PM 38.9000 -98.5170 251° West 431 496 36,000  Level FlightAware
03:02PM 38.8770 -98.6030 251° West 432 497 36,000  Level FlightAware
03:03PM 38.8360 -98.7560 251° West 432 497 36,000  Level FlightAware
03:04PM 38.8100 -98.8470 250° West 432 497 36,000  Level FlightAware
03:08PM 38.6430 -99.4640 251° West 433 498 36,000  Level FlightAware
03:09PM 38.6120 -99.5720 250° West 433 498 36,000  Level FlightAware
03:09PM 38.5910 -99.6460 250° West 433 498 36,000  Level FlightAware
03:10PM 38.5640 -99.7400 250° West 433 498 36,000  Level FlightAware
03:11PM 38.5270 -99.8730 250° West 433 498 36,000  Level FlightAware
03:12PM 38.5060 -99.9470 250° West 433 498 36,000  Level FlightAware
03:13PM 38.4840 -100.0220 249° West 433 498 36,000  Level FlightAware
03:13PM 38.4570 -100.1160 250° West 433 498 36,000  Level FlightAware
03:14PM 38.4360 -100.1920 251° West 433 498 36,000  Level FlightAware
03:15PM 38.3820 -100.3800 250° West 433 498 36,000  Level FlightAware
03:16PM 38.3610 -100.4530 253° West 433 498 36,000  Level FlightAware
03:17PM 38.3260 -100.5760 250° West 433 498 36,000  Level FlightAware
03:18PM 38.3050 -100.6490 250° West 433 498 36,000  Level FlightAware
03:23PM 38.3312 -101.6710 272° West 425 489 36,000  Level FlightAware ADS-B
03:24PM 38.3375 -101.7460 276° West 425 489 36,000  Level FlightAware ADS-B
03:24PM 38.3442 -101.8200 277° West 424 488 36,000  Level FlightAware ADS-B
03:25PM 38.3509 -101.8950 277° West 425 489 36,000  Level FlightAware ADS-B
03:25PM 38.3520 -101.9120 275° West 426 490 36,000  Level FlightAware ADS-B
03:25PM 38.3521 -101.9210 271° West 426 490 36,000  Level FlightAware ADS-B
03:25PM 38.3513 -101.9410 267° West 427 491 36,000  Level FlightAware ADS-B
03:25PM 38.3495 -101.9580 262° West 429 494 36,000  Level FlightAware ADS-B
03:25PM 38.3465 -101.9750 257° West 431 496 36,000  Level FlightAware ADS-B
03:25PM 38.3399 -102.0000 251° West 434 499 36,000  Level FlightAware ADS-B
03:25PM 38.3350 -102.0130 244° Southwest 436 502 36,000  Level FlightAware ADS-B
03:26PM 38.3217 -102.0450 242° Southwest 433 498 36,000  Level FlightAware ADS-B
03:26PM 38.3087 -102.0870 248° West 435 501 36,000  Level FlightAware ADS-B
03:26PM 38.2847 -102.1590 247° West 434 499 36,000  Level FlightAware ADS-B
03:27PM 38.2609 -102.2300 247° West 434 499 36,000  Level FlightAware ADS-B
03:27PM 38.2372 -102.3010 247° West 435 501 36,000  Level FlightAware ADS-B
03:28PM 38.2129 -102.3740 247° West 435 501 36,000  Level FlightAware ADS-B
03:28PM 38.1893 -102.4440 247° West 436 502 36,000  Level FlightAware ADS-B
03:29PM 38.1628 -102.5230 247° West 436 502 36,000  Level FlightAware ADS-B
03:30PM 38.1371 -102.5990 247° West 435 501 36,000  Level FlightAware ADS-B
03:30PM 38.1130 -102.6700 247° West 435 501 36,000  Level FlightAware ADS-B
03:31PM 38.0890 -102.7400 246° West 435 501 36,000  Level FlightAware ADS-B
03:31PM 38.0651 -102.8110 247° West 434 499 36,000  Level FlightAware ADS-B
03:32PM 38.0409 -102.8820 247° West 435 501 36,000  Level FlightAware ADS-B
03:32PM 38.0184 -102.9480 247° West 435 501 36,000  Level FlightAware ADS-B
03:32PM 38.0122 -102.9700 250° West 432 497 36,000  Level FlightAware ADS-B
03:32PM 38.0088 -102.9860 255° West 431 496 36,000  Level FlightAware ADS-B
03:33PM 37.9965 -103.0610 258° West 431 496 36,000  Level FlightAware ADS-B
03:33PM 37.9843 -103.1370 259° West 430 495 36,000  Level FlightAware ADS-B
03:34PM 37.9725 -103.2120 259° West 430 495 36,000  Level FlightAware ADS-B
03:34PM 37.9604 -103.2890 259° West 429 494 36,000  Level FlightAware ADS-B
03:35PM 37.9490 -103.3630 259° West 429 494 36,000  Level FlightAware ADS-B
03:35PM 37.9370 -103.4400 259° West 428 493 36,000  Level FlightAware ADS-B
03:36PM 37.9253 -103.5150 259° West 427 491 36,000 -120 Level FlightAware ADS-B
03:36PM 37.9139 -103.5900 259° West 426 490 35,900 240 Descending FlightAware ADS-B
03:37PM 37.9028 -103.6640 259° West 425 489 36,300 900 Climbing FlightAware ADS-B
03:37PM 37.8916 -103.7380 259° West 425 489 36,800 1,020 Climbing FlightAware ADS-B
03:38PM 37.8796 -103.8180 259° West 421 484 37,400 900 Climbing FlightAware ADS-B
03:39PM 37.8680 -103.8940 259° West 421 484 37,800 660 Climbing FlightAware ADS-B
03:39PM 37.8594 -103.9460 258° West 422 486 38,000 180 Climbing FlightAware ADS-B
03:40PM 37.8416 -104.0390 256° West 423 487 38,000  Level FlightAware ADS-B
03:40PM 37.8276 -104.1130 257° West 423 487 38,000  Level FlightAware ADS-B
03:40PM 37.8180 -104.1620 256° West 425 489 38,000  Level FlightAware ADS-B
03:41PM 37.7955 -104.2470 252° West 427 491 38,000  Level FlightAware ADS-B
03:42PM 37.7742 -104.3270 251° West 426 490 38,000  Level FlightAware ADS-B
03:42PM 37.7504 -104.4140 251° West 426 490 38,000  Level FlightAware ADS-B
03:43PM 37.7265 -104.4950 250° West 425 489 38,000  Level FlightAware ADS-B
03:43PM 37.7060 -104.5640 249° West 424 488 38,000  Level FlightAware ADS-B
03:44PM 37.6817 -104.6330 246° West 423 487 38,000  Level FlightAware ADS-B
03:44PM 37.6558 -104.7000 244° Southwest 423 487 38,000  Level FlightAware ADS-B
03:45PM 37.6288 -104.7700 244° Southwest 422 486 38,000  Level FlightAware ADS-B
03:45PM 37.6031 -104.8360 244° Southwest 423 487 38,000  Level FlightAware ADS-B
03:46PM 37.5767 -104.9050 244° Southwest 426 490 38,000  Level FlightAware ADS-B
03:47PM 37.5171 -105.0400 241° Southwest 432 497 38,000  Level FlightAware ADS-B
03:47PM 37.4813 -105.1040 235° Southwest 431 496 38,000  Level FlightAware ADS-B
03:48PM 37.4610 -105.1400 235° Southwest 432 497 38,000  Level FlightAware ADS-B
03:48PM 37.4242 -105.2000 232° Southwest 431 496 38,000  Level FlightAware ADS-B
03:49PM 37.3870 -105.2640 234° Southwest 434 499 38,000  Level FlightAware ADS-B
03:49PM 37.3355 -105.3490 233° Southwest 436 502 38,000  Level FlightAware ADS-B
03:50PM 37.3042 -105.4020 233° Southwest 435 501 38,000  Level FlightAware ADS-B
03:50PM 37.2746 -105.4870 246° West 434 499 38,000  Level FlightAware ADS-B
03:51PM 37.2520 -105.5760 252° West 430 495 38,000  Level FlightAware ADS-B
03:52PM 37.2262 -105.7290 258° West 432 497 38,000  Level FlightAware ADS-B
03:53PM 37.2139 -105.8180 260° West 435 501 38,000  Level FlightAware ADS-B
03:54PM 37.1919 -105.9710 260° West 435 501 38,000  Level FlightAware ADS-B
03:54PM 37.1790 -106.0470 258° West 439 505 38,000  Level FlightAware ADS-B
03:58PM 37.0170 -106.5680 249° West 439 505 38,000  Level FlightAware
03:59PM 36.9830 -106.6490 242° Southwest 440 506 38,000  Level FlightAware
03:59PM 36.9340 -106.7670 243° Southwest 442 509 38,000  Level FlightAware
04:00PM 36.8860 -106.8790 242° Southwest 444 511 38,000  Level FlightAware
04:01PM 36.8320 -107.0080 242° Southwest 444 511 38,000  Level FlightAware
04:02PM 36.7980 -107.0880 242° Southwest 443 510 38,000  Level FlightAware
04:03PM 36.7540 -107.1920 242° Southwest 442 509 38,000  Level FlightAware
04:03PM 36.7150 -107.2830 242° Southwest 444 511 38,000  Level FlightAware
04:04PM 36.6760 -107.3740 242° Southwest 444 511 38,000  Level FlightAware
04:05PM 36.6340 -107.4720 242° Southwest 443 510 38,000  Level FlightAware
04:06PM 36.5790 -107.6010 242° Southwest 441 507 38,000  Level FlightAware
04:06PM 36.5430 -107.6840 242° Southwest 439 505 38,000  Level FlightAware
04:07PM 36.5020 -107.7810 242° Southwest 439 505 38,000  Level FlightAware
04:08PM 36.4630 -107.8720 242° Southwest 439 505 38,000  Level FlightAware
04:08PM 36.4330 -107.9400 241° Southwest 439 505 38,000  Level FlightAware
04:09PM 36.4060 -108.0040 242° Southwest 439 505 38,000  Level FlightAware
04:10PM 36.3750 -108.0760 242° Southwest 439 505 38,000  Level FlightAware
04:10PM 36.3100 -108.2410 244° Southwest 441 507 38,000  Level FlightAware
04:11PM 36.2770 -108.3550 250° West 441 507 38,000  Level FlightAware
04:12PM 36.2480 -108.4540 250° West 441 507 38,000  Level FlightAware
04:13PM 36.2280 -108.5220 250° West 441 507 38,000  Level FlightAware
04:14PM 36.1990 -108.6210 250° West 441 507 38,000  Level FlightAware
04:14PM 36.1770 -108.6940 250° West 441 507 38,000  Level FlightAware
04:14PM 36.1700 -108.7180 250° West 441 507 38,000  Level FlightAware
04:16PM 36.1220 -108.8820 250° West 441 507 38,000  Level FlightAware
04:16PM 36.1000 -108.9560 250° West 441 507 38,000  Level FlightAware
04:17PM 36.0730 -109.0490 250° West 441 507 38,000  Level FlightAware
04:18PM 36.0510 -109.1240 250° West 441 507 38,000  Level FlightAware
04:18PM 35.9790 -109.3950 252° West 452 520 38,000  Level FlightAware
04:19PM 35.9380 -109.4920 242° Southwest 450 518 38,000  Level FlightAware
04:20PM 35.8960 -109.5790 239° Southwest 448 516 38,000  Level FlightAware
04:20PM 35.8570 -109.6580 239° Southwest 447 514 38,000  Level FlightAware
04:21PM 35.8100 -109.7550 239° Southwest 445 512 38,000  Level FlightAware
04:22PM 35.7700 -109.8360 239° Southwest 444 511 38,000  Level FlightAware
04:22PM 35.7220 -109.9350 239° Southwest 443 510 38,000  Level FlightAware
04:23PM 35.6790 -110.0220 239° Southwest 442 509 38,000  Level FlightAware
04:24PM 35.6350 -110.1100 238° Southwest 443 510 38,000  Level FlightAware
04:24PM 35.5950 -110.1900 238° Southwest 443 510 38,000  Level FlightAware
04:25PM 35.5530 -110.3010 245° Southwest 445 512 38,000  Level FlightAware
04:26PM 35.5230 -110.3970 249° West 446 513 38,000  Level FlightAware
04:27PM 35.4900 -110.5040 249° West 447 514 38,000  Level FlightAware
04:27PM 35.4620 -110.5950 249° West 448 516 38,000  Level FlightAware
04:28PM 35.4280 -110.7030 249° West 450 518 38,000  Level FlightAware
04:29PM 35.4000 -110.7930 249° West 451 519 38,000  Level FlightAware
04:29PM 35.3670 -110.8980 249° West 451 519 38,000  Level FlightAware
04:30PM 35.3360 -110.9990 249° West 451 519 38,000  Level FlightAware
04:32PM 35.2720 -111.2000 249° West 452 520 38,000  Level FlightAware
04:32PM 35.2450 -111.2840 249° West 452 520 38,000  Level FlightAware
04:33PM 35.1940 -111.4450 249° West 452 520 38,000  Level FlightAware
04:34PM 35.1630 -111.5410 248° West 451 519 38,000  Level FlightAware
04:35PM 35.1300 -111.6450 249° West 451 519 38,000  Level FlightAware
04:35PM 35.0990 -111.7410 248° West 451 519 38,000  Level FlightAware
04:36PM 35.0700 -111.8300 248° West 451 519 38,000  Level FlightAware
04:37PM 35.0360 -111.9330 248° West 450 518 38,000  Level FlightAware
04:37PM 35.0060 -112.0280 249° West 451 519 38,000  Level FlightAware
04:38PM 34.9750 -112.1210 248° West 451 519 38,000  Level FlightAware
04:39PM 34.9440 -112.2170 249° West 451 519 38,000  Level FlightAware
04:39PM 34.9100 -112.3200 248° West 453 521 38,000  Level FlightAware
04:40PM 34.8780 -112.4170 248° West 454 522 38,000  Level FlightAware
04:41PM 34.8460 -112.5130 248° West 455 524 38,000  Level FlightAware
04:41PM 34.8130 -112.6130 248° West 456 525 38,000  Level FlightAware
04:42PM 34.7840 -112.7010 248° West 456 525 38,000  Level FlightAware
04:43PM 34.7510 -112.8010 248° West 455 524 38,000  Level FlightAware
04:43PM 34.7170 -112.9000 247° West 455 524 38,000  Level FlightAware
04:44PM 34.6830 -113.0030 248° West 454 522 38,000  Level FlightAware
04:46PM 34.5960 -113.2580 248° West 453 521 38,000 -660 Level FlightAware
04:47PM 34.5450 -113.4090 248° West 452 520 36,100 -1,380 Descending FlightAware
04:48PM 34.5090 -113.5150 248° West 453 521 36,000 -120 Descending FlightAware
04:49PM 34.4750 -113.6130 247° West 454 522 36,000  Level FlightAware
04:49PM 34.4430 -113.7080 248° West 455 524 36,000  Level FlightAware
04:50PM 34.4070 -113.8120 247° West 457 526 36,000  Level FlightAware
04:51PM 34.3730 -113.9090 247° West 457 526 36,000  Level FlightAware
04:51PM 34.3400 -114.0040 247° West 455 524 36,000  Level FlightAware
04:52PM 34.3040 -114.1070 247° West 452 520 36,000  Level FlightAware
04:53PM 34.2740 -114.1950 248° West 451 519 36,000  Level FlightAware
04:53PM 34.2410 -114.2890 247° West 450 518 36,000 -120 Level FlightAware
04:54PM 34.2080 -114.3830 247° West 449 517 35,900 -600 Descending FlightAware
04:55PM 34.1760 -114.4730 247° West 451 519 35,200 -720 Descending FlightAware
04:55PM 34.1510 -114.5410 246° West 452 520 35,100 -120 Descending FlightAware
04:56PM 34.1170 -114.6330 246° West 452 520 35,100  Level FlightAware
04:57PM 34.0910 -114.7050 246° West 452 520 35,100  Level FlightAware
04:57PM 34.0560 -114.8000 246° West 452 520 35,100  Level FlightAware
04:58PM 34.0300 -114.8700 246° West 452 520 35,100  Level FlightAware
04:59PM 33.9950 -114.9640 246° West 452 520 35,100  Level FlightAware
04:59PM 33.9690 -115.0350 246° West 452 520 35,100  Level FlightAware
05:00PM 33.9270 -115.1480 246° West 452 520 35,100  Level FlightAware
05:02PM 33.8660 -115.3120 246° West 452 520 35,100  Level FlightAware
05:02PM 33.8400 -115.3830 246° West 452 520 35,100  Level FlightAware
05:03PM 33.7980 -115.4960 246° West 452 520 35,100  Level FlightAware
05:04PM 33.7720 -115.5660 246° West 452 520 35,100 -4,020 Level FlightAware
05:06PM 33.4740 -115.9850 230° Southwest 419 482 24,000 -4,380 Descending FlightAware
05:07PM 33.4170 -116.0400 219° Southwest 404 465 22,900 -780 Descending FlightAware
05:08PM 33.3520 -116.1040 219° Southwest 404 465 22,900  Level FlightAware
05:08PM 33.3080 -116.1470 219° Southwest 404 465 22,900  Level FlightAware
05:09PM 33.2500 -116.2030 219° Southwest 404 465 22,900  Level FlightAware
05:10PM 33.2050 -116.2460 219° Southwest 404 465 22,900 -4,980 Level FlightAware
05:11PM 33.1240 -116.3280 220° Southwest 358 412 15,500 -6,240 Descending FlightAware
05:11PM 33.0690 -116.3830 220° Southwest 354 407 13,000 -2,760 Descending FlightAware
05:12PM 33.0200 -116.4300 219° Southwest 344 396 12,000 -1,080 Descending FlightAware
05:13PM 32.9580 -116.4760 212° Southwest 322 371 11,600 -780 Descending FlightAware
05:13PM 32.9170 -116.5370 231° Southwest 306 352 10,800 -1,080 Descending FlightAware
05:14PM 32.8850 -116.5890 234° Southwest 296 341 10,100 -840 Descending FlightAware
05:15PM 32.8620 -116.6260 234° Southwest 294 338 9,900 -960 Descending FlightAware
05:16PM 32.8040 -116.7200 234° Southwest 285 328 8,400 -1,260 Descending FlightAware
05:17PM 32.7660 -116.7820 234° Southwest 277 319 7,400 -1,200 Descending FlightAware
05:17PM 32.7490 -116.8100 234° Southwest 254 292 7,100 -900 Descending FlightAware
05:17PM 32.7390 -116.8270 235° Southwest 249 287 6,800 -1,500 Descending FlightAware
05:18PM 32.7210 -116.8560 234° Southwest 246 283 6,100 -1,560 Descending FlightAware
05:18PM 32.7020 -116.8860 233° Southwest 241 277 5,400 -1,320 Descending FlightAware
05:18PM 32.6910 -116.9050 235° Southwest 232 267 5,100 -1,080 Descending FlightAware
05:19PM 32.6750 -116.9360 238° Southwest 221 254 4,600 -1,200 Descending FlightAware
05:19PM 32.6790 -116.9680 278° West 210 242 4,000 -1,320 Descending FlightAware
05:20PM 32.6870 -116.9980 288° West 203 234 3,400 -1,380 Descending FlightAware
05:20PM 32.6900 -117.0110 285° West 200 230 3,100 -1,380 Descending FlightAware
05:21PM 32.6970 -117.0400 286° West 192 221 2,500 -1,260 Descending FlightAware
05:21PM 32.7000 -117.0500 290° West 191 220 2,300 -1,200 Descending FlightAware
05:21PM 32.7060 -117.0760 285° West 180 207 1,800 -1,020 Descending FlightAware
05:22PM 32.7120 -117.1000 287° West 162 186 1,400 -900 Descending FlightAware
05:22PM 32.7170 -117.1240 284° West 158 182 1,000 -900 Descending FlightAware
05:23PM 32.7230 -117.1460 288° West 151 174 600 -900 Descending FlightAware
05:23PM 32.7270 -117.1630 286° West 152 175 300 -900 Descending FlightAware
05:23PM 32.7300 -117.1730 290° West 151 174 100 -900 Descending FlightAware
05:24PM 32.7350 -117.1960 284° West 100 115 -240 Descending FlightAware
05:24PM 32.7360 -117.2020 281° West 16 18  Level FlightAware
05:25PM 32.7350 -117.2010 140° Southeast 9 10  Level FlightAware
05:26PM 32.7350 -117.2000 90° East 26 30  Level FlightAware
05:26PM 32.7340 -117.2000 180° South 29 33  Level FlightAware
05:27PM 32.7330 -117.2000 180° South 27 31  Level FlightAware
05:27PM 32.7330 -117.2010 270° West  Level FlightAware